createdAt,value
2023-04-18T00:02:17.540Z,14.51
2023-04-18T00:05:19.871Z,14.51
2023-04-18T00:08:21.742Z,14.42
2023-04-18T00:11:23.568Z,13.86
2023-04-18T00:14:25.364Z,13.96
2023-04-18T00:17:27.803Z,14.03
2023-04-18T00:20:29.790Z,13.64
2023-04-18T00:23:33.544Z,13.99
2023-04-18T00:26:35.519Z,13.95
2023-04-18T00:29:37.380Z,13.62
2023-04-18T00:32:39.259Z,13.79
2023-04-18T00:35:41.132Z,13.75
2023-04-18T00:38:43.166Z,13.64
2023-04-18T00:41:45.051Z,13.94
2023-04-18T00:44:48.022Z,14.29
2023-04-18T00:47:49.883Z,14.02
2023-04-18T00:50:51.868Z,14.08
2023-04-18T00:53:53.733Z,14.34
2023-04-18T00:56:55.685Z,13.40
2023-04-18T00:59:57.583Z,14.13
2023-04-18T01:02:59.690Z,14.41
2023-04-18T01:06:02.142Z,14.25
2023-04-18T01:09:05.627Z,13.55
2023-04-18T01:12:07.506Z,13.89
2023-04-18T01:15:09.414Z,13.81
2023-04-18T01:18:11.766Z,14.18
2023-04-18T01:21:14.729Z,14.29
2023-04-18T01:24:17.059Z,14.19
2023-04-18T01:27:18.931Z,15.07
2023-04-18T01:30:20.869Z,14.39
2023-04-18T01:33:22.919Z,14.74
2023-04-18T01:36:24.800Z,14.63
2023-04-18T01:39:26.611Z,14.25
2023-04-18T01:42:28.620Z,14.12
2023-04-18T01:45:30.559Z,14.30
2023-04-18T01:48:33.320Z,14.08
2023-04-18T01:51:35.216Z,14.50
2023-04-18T01:54:37.122Z,14.19
2023-04-18T01:57:39.033Z,13.95
2023-04-18T02:00:40.964Z,14.50
2023-04-18T02:03:43.210Z,14.08
2023-04-18T02:06:45.296Z,14.07
2023-04-18T02:09:47.135Z,13.80
2023-04-18T02:12:49.042Z,14.21
2023-04-18T02:15:50.904Z,13.41
2023-04-18T02:18:52.827Z,13.24
2023-04-18T02:21:54.674Z,13.65
2023-04-18T02:24:56.570Z,13.91
2023-04-18T02:27:58.635Z,13.86
2023-04-18T02:31:00.812Z,13.82
2023-04-18T02:34:02.654Z,13.75
2023-04-18T02:37:04.909Z,14.33
2023-04-18T02:40:07.292Z,14.22
2023-04-18T02:43:09.278Z,14.28
2023-04-18T02:46:11.218Z,14.49
2023-04-18T02:49:13.094Z,14.38
2023-04-18T02:52:15.064Z,14.53
2023-04-18T02:55:16.995Z,14.70
2023-04-18T02:58:18.864Z,14.20
2023-04-18T03:01:21.094Z,13.99
2023-04-18T03:04:23.039Z,14.45
2023-04-18T03:07:24.954Z,14.20
2023-04-18T03:10:26.813Z,14.34
2023-04-18T03:13:28.630Z,13.80
2023-04-18T03:16:30.709Z,13.93
2023-04-18T03:19:32.648Z,14.84
2023-04-18T03:22:34.580Z,14.18
2023-04-18T03:25:36.380Z,14.11
2023-04-18T03:28:38.277Z,13.61
2023-04-18T03:31:41.488Z,14.34
2023-04-18T03:34:43.504Z,14.02
2023-04-18T03:37:45.359Z,14.02
2023-04-18T03:40:47.218Z,13.86
2023-04-18T03:43:49.067Z,13.64
2023-04-18T03:46:50.907Z,13.92
2023-04-18T03:49:54.425Z,13.90
2023-04-18T03:52:56.297Z,13.81
2023-04-18T03:55:58.165Z,14.13
2023-04-18T03:58:59.992Z,13.16
2023-04-18T04:02:02.119Z,13.59
2023-04-18T04:05:05.111Z,13.77
2023-04-18T04:08:06.972Z,13.58
2023-04-18T04:11:08.920Z,13.30
2023-04-18T04:14:10.773Z,13.15
2023-04-18T04:17:12.629Z,12.99
2023-04-18T04:20:14.538Z,13.60
2023-04-18T04:23:16.647Z,13.74
2023-04-18T04:26:18.533Z,13.43
2023-04-18T04:29:21.608Z,13.28
2023-04-18T04:32:25.149Z,13.60
2023-04-18T04:35:27.330Z,13.46
2023-04-18T04:38:31.223Z,13.39
2023-04-18T04:41:33.218Z,13.78
2023-04-18T04:44:35.616Z,13.12
2023-04-18T04:47:37.596Z,13.09
2023-04-18T04:50:40.025Z,13.92
2023-04-18T04:53:41.913Z,13.39
2023-04-18T04:56:43.755Z,14.21
2023-04-18T04:59:45.757Z,14.20
2023-04-18T05:02:48.145Z,13.79
2023-04-18T05:05:50.199Z,14.16
2023-04-18T05:08:52.034Z,14.08
2023-04-18T05:11:53.928Z,14.35
2023-04-18T05:14:55.766Z,14.63
2023-04-18T05:17:57.977Z,14.02
2023-04-18T05:20:59.862Z,13.51
2023-04-18T05:24:01.745Z,13.70
2023-04-18T05:27:03.638Z,13.97
2023-04-18T05:30:05.915Z,13.73
2023-04-18T05:33:07.857Z,13.38
2023-04-18T05:36:09.787Z,14.20
2023-04-18T05:39:11.845Z,13.40
2023-04-18T05:42:13.683Z,13.62
2023-04-18T05:45:15.756Z,13.58
2023-04-18T05:48:17.654Z,13.53
2023-04-18T05:51:19.546Z,13.65
2023-04-18T05:54:21.608Z,13.74
2023-04-18T05:57:23.466Z,15.11
2023-04-18T06:00:25.324Z,14.43
2023-04-18T06:03:27.506Z,14.82
2023-04-18T06:06:29.581Z,14.52
2023-04-18T06:09:31.637Z,14.35
2023-04-18T06:12:33.546Z,14.76
2023-04-18T06:15:35.747Z,15.12
2023-04-18T06:18:37.737Z,14.82
2023-04-18T06:21:42.018Z,14.95
2023-04-18T06:24:43.912Z,14.70
2023-04-18T06:27:45.820Z,14.95
2023-04-18T06:30:47.700Z,14.12
2023-04-18T06:33:49.581Z,14.58
2023-04-18T06:36:51.729Z,15.51
2023-04-18T06:39:54.267Z,15.42
2023-04-18T06:42:56.415Z,15.81
2023-04-18T06:45:59.066Z,15.72
2023-04-18T06:49:01.336Z,16.08
2023-04-18T06:52:03.342Z,16.76
2023-04-18T06:55:05.430Z,16.49
2023-04-18T06:58:08.604Z,16.61
2023-04-18T07:01:13.056Z,16.88
2023-04-18T07:04:15.637Z,17.56
2023-04-18T07:07:17.866Z,17.38
2023-04-18T07:10:19.709Z,17.66
2023-04-18T07:13:21.643Z,17.75
2023-04-18T07:16:23.712Z,18.08
2023-04-18T07:19:25.852Z,17.80
2023-04-18T07:22:27.674Z,17.82
2023-04-18T07:25:29.599Z,17.23
2023-04-18T07:28:31.958Z,17.32
2023-04-18T07:31:34.349Z,17.93
2023-04-18T07:34:37.558Z,16.52
2023-04-18T07:37:39.563Z,17.43
2023-04-18T07:40:41.527Z,17.14
2023-04-18T07:43:44.976Z,17.80
2023-04-18T07:46:47.048Z,18.12
2023-04-18T07:49:49.300Z,17.85
2023-04-18T07:52:51.212Z,16.54
2023-04-18T07:55:54.632Z,17.81
2023-04-18T07:58:56.562Z,16.37
2023-04-18T08:01:58.534Z,16.78
2023-04-18T08:05:00.683Z,17.00
2023-04-18T08:08:02.992Z,17.01
2023-04-18T08:11:04.954Z,17.72
2023-04-18T08:14:06.908Z,17.63
2023-04-18T08:17:08.869Z,17.27
2023-04-18T08:20:13.166Z,16.78
2023-04-18T08:23:15.936Z,17.23
2023-04-18T08:26:18.288Z,18.00
2023-04-18T08:29:20.250Z,19.46
2023-04-18T08:32:22.390Z,19.83
2023-04-18T08:35:24.290Z,18.74
2023-04-18T08:38:26.307Z,18.70
2023-04-18T08:41:28.763Z,20.66
2023-04-18T08:44:30.848Z,20.61
2023-04-18T08:47:32.898Z,21.45
2023-04-18T08:50:37.439Z,19.82
2023-04-18T08:53:39.609Z,21.56
2023-04-18T08:56:42.459Z,22.74
2023-04-18T08:59:50.359Z,22.12
2023-04-18T09:03:03.014Z,23.61
2023-04-18T09:06:12.797Z,23.33
2023-04-18T09:09:16.860Z,21.97
2023-04-18T09:12:22.818Z,21.65
2023-04-18T09:15:27.309Z,20.63
2023-04-18T09:18:31.033Z,20.83
2023-04-18T09:21:33.005Z,21.44
2023-04-18T09:24:34.905Z,22.49
2023-04-18T09:27:37.521Z,21.18
2023-04-18T09:30:40.528Z,21.12
2023-04-18T09:33:44.992Z,21.30
2023-04-18T09:36:46.924Z,21.08
2023-04-18T09:39:49.987Z,19.93
2023-04-18T09:42:53.533Z,22.63
2023-04-18T09:45:55.582Z,21.49
2023-04-18T09:48:57.608Z,21.41
2023-04-18T09:51:59.587Z,20.68
2023-04-18T09:55:02.361Z,21.65
2023-04-18T09:58:04.555Z,23.58
2023-04-18T10:01:06.500Z,23.62
2023-04-18T10:04:08.555Z,22.68
2023-04-18T10:07:10.633Z,21.81
2023-04-18T10:10:13.054Z,21.69
2023-04-18T10:13:15.149Z,21.39
2023-04-18T10:16:17.224Z,22.72
2023-04-18T10:19:19.708Z,24.25
2023-04-18T10:22:25.394Z,21.69
2023-04-18T10:25:39.812Z,22.35
2023-04-18T10:28:57.487Z,20.69
2023-04-18T10:32:05.282Z,21.65
2023-04-18T10:35:08.508Z,21.37
2023-04-18T10:38:16.842Z,20.83
2023-04-18T10:41:18.759Z,19.50
2023-04-18T10:44:23.067Z,20.64
2023-04-18T10:47:25.822Z,20.87
2023-04-18T10:50:27.829Z,21.34
2023-04-18T10:53:29.730Z,22.60
2023-04-18T10:56:31.738Z,21.18
2023-04-18T10:59:34.232Z,21.18
2023-04-18T11:02:36.278Z,21.63
2023-04-18T11:05:38.334Z,21.32
2023-04-18T11:08:40.765Z,21.36
2023-04-18T11:11:44.254Z,22.19
2023-04-18T11:14:47.475Z,21.34
2023-04-18T11:18:02.212Z,22.00
2023-04-18T11:21:04.345Z,20.18
2023-04-18T11:24:06.540Z,21.44
2023-04-18T11:27:09.364Z,21.20
2023-04-18T11:30:11.848Z,20.25
2023-04-18T11:33:14.644Z,21.00
2023-04-18T11:36:16.579Z,21.50
2023-04-18T11:39:18.815Z,21.68
2023-04-18T11:42:21.250Z,21.95
2023-04-18T11:45:23.163Z,21.76
2023-04-18T11:48:34.011Z,22.26
2023-04-18T11:51:38.404Z,20.75
2023-04-18T11:54:41.117Z,21.14
2023-04-18T11:57:43.310Z,20.52
2023-04-18T12:00:45.744Z,19.98
2023-04-18T12:04:00.937Z,19.91
2023-04-18T12:07:03.644Z,19.33
2023-04-18T12:10:09.538Z,19.49
2023-04-18T12:13:11.436Z,20.42
2023-04-18T12:16:13.648Z,19.95
2023-04-18T12:19:15.682Z,21.20
2023-04-18T12:22:17.892Z,19.59
2023-04-18T12:25:26.709Z,19.97
2023-04-18T12:28:29.447Z,20.60
2023-04-18T12:31:31.839Z,21.38
2023-04-18T12:34:33.742Z,20.67
2023-04-18T12:37:35.952Z,20.62
2023-04-18T12:40:41.143Z,21.40
2023-04-18T12:43:43.051Z,20.27
2023-04-18T12:46:45.024Z,19.62
2023-04-18T12:49:47.302Z,19.73
2023-04-18T12:52:49.492Z,20.26
2023-04-18T12:55:54.168Z,19.59
2023-04-18T12:58:56.557Z,20.47
2023-04-18T13:01:58.593Z,21.40
2023-04-18T13:05:01.045Z,21.94
2023-04-18T13:11:08.211Z,19.94
2023-04-18T13:14:10.201Z,20.61
2023-04-18T13:17:12.178Z,20.28
2023-04-18T13:20:14.327Z,20.96
2023-04-18T13:23:16.165Z,20.59
2023-04-18T13:26:18.052Z,20.86
2023-04-18T13:29:20.146Z,20.71
2023-04-18T13:32:22.380Z,21.06
2023-04-18T13:35:24.487Z,21.55
2023-04-18T13:38:27.560Z,21.75
2023-04-18T13:41:29.502Z,21.17
2023-04-18T13:44:31.671Z,20.18
2023-04-18T13:47:33.911Z,20.40
2023-04-18T13:50:36.036Z,21.19
2023-04-18T13:53:37.943Z,19.93
2023-04-18T13:56:39.816Z,20.34
2023-04-18T13:59:41.710Z,20.53
2023-04-18T14:02:43.815Z,20.04
2023-04-18T14:05:45.846Z,20.18
2023-04-18T14:08:49.154Z,19.57
2023-04-18T14:11:51.407Z,19.90
2023-04-18T14:14:53.399Z,20.42
2023-04-18T14:17:55.379Z,20.74
2023-04-18T14:20:57.336Z,21.40
2023-04-18T14:23:59.190Z,20.89
2023-04-18T14:27:02.431Z,21.01
2023-04-18T14:30:06.745Z,20.74
2023-04-18T14:33:09.896Z,20.54
2023-04-18T14:36:11.837Z,20.65
2023-04-18T14:39:14.327Z,20.22
2023-04-18T14:42:17.573Z,20.01
2023-04-18T14:45:19.687Z,20.61
2023-04-18T14:48:21.572Z,20.04
2023-04-18T14:51:23.678Z,19.35
2023-04-18T14:54:25.816Z,20.08
2023-04-18T14:57:30.292Z,20.17
2023-04-18T15:00:33.256Z,19.84
2023-04-18T15:03:35.310Z,20.01
2023-04-18T15:06:37.432Z,20.44
2023-04-18T15:09:39.434Z,20.52
2023-04-18T15:12:42.538Z,20.51
2023-04-18T15:15:50.876Z,21.10
2023-04-18T15:18:52.756Z,20.50
2023-04-18T15:21:54.568Z,20.55
2023-04-18T15:24:56.604Z,19.80
2023-04-18T15:27:58.773Z,19.70
2023-04-18T15:31:00.939Z,20.54
2023-04-18T15:34:02.753Z,20.51
2023-04-18T15:37:04.616Z,20.39
2023-04-18T15:40:09.284Z,20.11
2023-04-18T15:43:11.244Z,20.33
2023-04-18T15:46:13.768Z,20.29
2023-04-18T15:49:15.770Z,20.63
2023-04-18T15:52:17.832Z,20.27
2023-04-18T15:55:19.777Z,20.44
2023-04-18T15:58:22.176Z,20.29
2023-04-18T16:01:24.072Z,20.39
2023-04-18T16:04:26.190Z,19.82
2023-04-18T16:07:28.061Z,19.67
2023-04-18T16:10:29.896Z,19.58
2023-04-18T16:13:31.758Z,19.89
2023-04-18T16:16:34.486Z,19.29
2023-04-18T16:19:38.835Z,19.45
2023-04-18T16:22:40.671Z,18.92
2023-04-18T16:25:42.541Z,19.20
2023-04-18T16:28:44.475Z,19.54
2023-04-18T16:31:46.775Z,19.39
2023-04-18T16:34:48.886Z,19.67
2023-04-18T16:37:51.030Z,19.04
2023-04-18T16:41:00.577Z,19.27
2023-04-18T16:44:02.414Z,18.83
2023-04-18T16:47:06.077Z,19.14
2023-04-18T16:50:08.567Z,19.37
2023-04-18T16:53:10.422Z,19.70
2023-04-18T16:56:12.387Z,20.11
2023-04-18T16:59:14.323Z,19.38
2023-04-18T17:02:16.376Z,19.24
2023-04-18T17:05:18.974Z,18.63
2023-04-18T17:08:21.107Z,18.27
2023-04-18T17:11:23.372Z,19.18
2023-04-18T17:14:25.337Z,19.45
2023-04-18T17:17:27.234Z,18.17
2023-04-18T17:20:29.217Z,18.52
2023-04-18T17:23:32.813Z,18.56
2023-04-18T17:26:35.412Z,18.80
2023-04-18T17:29:37.363Z,19.27
2023-04-18T17:32:45.900Z,19.12
2023-04-18T17:35:48.278Z,19.31
2023-04-18T17:38:50.378Z,19.47
2023-04-18T17:41:52.660Z,19.70
2023-04-18T17:44:54.640Z,19.43
2023-04-18T17:47:58.287Z,19.50
2023-04-18T17:51:00.247Z,19.56
2023-04-18T17:54:02.288Z,19.96
2023-04-18T17:57:04.443Z,20.14
2023-04-18T18:00:10.522Z,20.13
2023-04-18T18:03:16.083Z,19.84
2023-04-18T18:06:18.033Z,19.95
2023-04-18T18:09:20.040Z,20.06
2023-04-18T18:12:21.893Z,19.91
2023-04-18T18:15:26.801Z,19.69
2023-04-18T18:18:29.889Z,19.66
2023-04-18T18:21:31.896Z,19.62
2023-04-18T18:24:33.949Z,19.64
2023-04-18T18:27:36.183Z,19.47
2023-04-18T18:30:38.263Z,19.54
2023-04-18T18:33:40.246Z,19.42
2023-04-18T18:36:42.115Z,19.36
2023-04-18T18:39:43.972Z,19.48
2023-04-18T18:42:46.142Z,19.33
2023-04-18T18:45:48.043Z,19.39
2023-04-18T18:48:49.998Z,18.36
2023-04-18T18:51:52.000Z,18.45
2023-04-18T18:54:54.988Z,18.21
2023-04-18T18:57:56.800Z,19.04
2023-04-18T19:01:02.278Z,18.83
2023-04-18T19:04:04.434Z,18.07
2023-04-18T19:07:07.374Z,17.65
2023-04-18T19:10:09.871Z,17.72
2023-04-18T19:13:11.718Z,17.56
2023-04-18T19:16:13.706Z,17.66
2023-04-18T19:19:17.436Z,17.20
2023-04-18T19:22:19.371Z,17.50
2023-04-18T19:25:21.253Z,17.40
2023-04-18T19:28:23.179Z,17.48
2023-04-18T19:31:24.999Z,17.17
2023-04-18T19:34:26.880Z,17.14
2023-04-18T19:37:28.892Z,17.42
2023-04-18T19:40:30.828Z,17.19
2023-04-18T19:43:32.837Z,17.32
2023-04-18T19:46:34.706Z,17.61
2023-04-18T19:49:36.580Z,18.27
2023-04-18T19:52:38.503Z,18.22
2023-04-18T19:55:40.818Z,18.44
2023-04-18T19:58:46.681Z,19.01
2023-04-18T20:01:48.700Z,17.68
2023-04-18T20:04:50.800Z,17.00
2023-04-18T20:07:52.971Z,16.71
2023-04-18T20:10:54.895Z,16.84
2023-04-18T20:13:56.844Z,16.39
2023-04-18T20:16:58.727Z,16.63
2023-04-18T20:20:00.798Z,16.61
2023-04-18T20:23:03.461Z,17.11
2023-04-18T20:26:05.561Z,17.39
2023-04-18T20:29:07.458Z,17.41
2023-04-18T20:32:11.218Z,16.64
2023-04-18T20:35:13.369Z,17.54
2023-04-18T20:38:15.414Z,17.50
2023-04-18T20:41:18.989Z,17.90
2023-04-18T20:44:20.998Z,17.81
2023-04-18T20:47:22.965Z,17.30
2023-04-18T20:50:24.826Z,17.12
2023-04-18T20:53:28.931Z,17.04
2023-04-18T20:56:30.950Z,16.68
2023-04-18T20:59:32.847Z,16.83
2023-04-18T21:02:34.781Z,17.11
2023-04-18T21:05:36.836Z,17.97
2023-04-18T21:08:39.391Z,17.96
2023-04-18T21:11:41.373Z,16.85
2023-04-18T21:14:43.218Z,16.53
2023-04-18T21:17:45.235Z,16.67
2023-04-18T21:20:47.129Z,15.83
2023-04-18T21:23:49.139Z,16.13
2023-04-18T21:26:50.972Z,17.17
2023-04-18T21:29:52.830Z,17.06
2023-04-18T21:32:54.780Z,17.38
2023-04-18T21:35:56.719Z,16.15
2023-04-18T21:38:59.418Z,16.73
2023-04-18T21:42:01.905Z,16.13
2023-04-18T21:45:04.237Z,15.98
2023-04-18T21:48:06.289Z,15.95
2023-04-18T21:51:13.043Z,16.13
2023-04-18T21:54:15.438Z,16.07
2023-04-18T21:57:17.571Z,16.07
2023-04-18T22:00:20.435Z,16.25
2023-04-18T22:03:26.569Z,16.19
2023-04-18T22:06:29.009Z,15.59
2023-04-18T22:09:31.476Z,16.07
2023-04-18T22:12:34.187Z,15.30
2023-04-18T22:15:39.421Z,15.28
2023-04-18T22:18:41.453Z,15.31
2023-04-18T22:21:43.283Z,15.71
2023-04-18T22:24:47.544Z,15.79
2023-04-18T22:27:49.855Z,15.83
2023-04-18T22:30:51.863Z,15.67
2023-04-18T22:33:53.730Z,16.21
2023-04-18T22:36:55.812Z,16.50
2023-04-18T22:39:57.743Z,16.47
2023-04-18T22:42:59.639Z,16.00
2023-04-18T22:46:01.461Z,15.72
2023-04-18T22:49:03.376Z,16.52
2023-04-18T22:52:06.310Z,16.10
2023-04-18T22:55:08.637Z,15.57
2023-04-18T22:58:10.830Z,16.58
2023-04-18T23:01:12.679Z,15.83
2023-04-18T23:04:14.901Z,15.98
2023-04-18T23:07:17.109Z,16.33
2023-04-18T23:10:19.028Z,15.90
2023-04-18T23:13:21.073Z,15.88
2023-04-18T23:16:23.225Z,15.72
2023-04-18T23:19:25.144Z,15.81
2023-04-18T23:22:27.045Z,16.32
2023-04-18T23:25:28.984Z,16.11
2023-04-18T23:28:30.960Z,16.23
2023-04-18T23:31:33.056Z,15.57
2023-04-18T23:34:34.997Z,15.13
2023-04-18T23:37:36.890Z,15.60
2023-04-18T23:40:38.784Z,16.08
2023-04-18T23:43:40.651Z,16.13
2023-04-18T23:46:42.527Z,15.78
2023-04-18T23:49:44.362Z,15.55
2023-04-18T23:52:46.470Z,15.98
2023-04-18T23:55:51.066Z,15.83
2023-04-18T23:58:54.077Z,15.26
